createdAt,value
2018-07-01T00:02:06.226Z,3.67
2018-07-01T00:04:36.110Z,3.40
2018-07-01T00:07:06.036Z,3.33
2018-07-01T00:09:37.531Z,4.13
2018-07-01T00:12:07.496Z,3.73
2018-07-01T00:14:39.615Z,3.70
2018-07-01T00:17:10.082Z,4.70
2018-07-01T00:19:42.664Z,4.57
2018-07-01T00:22:17.950Z,5.37
2018-07-01T00:24:51.333Z,5.70
2018-07-01T00:27:20.248Z,6.87
2018-07-01T00:29:48.994Z,6.30
2018-07-01T00:32:17.901Z,6.60
2018-07-01T00:34:51.630Z,6.90
2018-07-01T00:37:22.830Z,5.73
2018-07-01T00:39:53.818Z,5.27
2018-07-01T00:42:24.358Z,5.27
2018-07-01T00:44:54.212Z,4.90
2018-07-01T00:47:26.788Z,4.80
2018-07-01T00:49:59.575Z,4.77
2018-07-01T00:52:30.474Z,4.40
2018-07-01T00:57:38.569Z,4.40
2018-07-01T01:02:44.367Z,4.20
2018-07-01T01:05:14.172Z,4.03
2018-07-01T01:07:44.933Z,4.07
2018-07-01T01:10:13.866Z,4.10
2018-07-01T01:12:42.671Z,3.60
2018-07-01T01:15:11.438Z,3.77
2018-07-01T01:17:40.460Z,3.57
2018-07-01T01:20:10.543Z,3.80
2018-07-01T01:22:40.792Z,3.83
2018-07-01T01:25:14.155Z,3.93
2018-07-01T01:27:44.328Z,3.77
2018-07-01T01:30:15.534Z,4.00
2018-07-01T01:32:44.418Z,3.93
2018-07-01T01:35:13.222Z,3.93
2018-07-01T01:37:42.250Z,3.77
2018-07-01T01:40:12.593Z,3.77
2018-07-01T01:42:48.831Z,4.30
2018-07-01T01:45:27.880Z,3.90
2018-07-01T01:48:03.758Z,3.60
2018-07-01T01:50:42.027Z,4.00
2018-07-01T01:54:17.215Z,4.17
2018-07-01T01:56:55.475Z,4.10
2018-07-01T01:59:34.018Z,4.17
2018-07-01T02:02:10.008Z,4.10
2018-07-01T02:04:46.422Z,4.07
2018-07-01T02:07:30.455Z,4.07
2018-07-01T02:10:00.181Z,4.67
2018-07-01T02:12:29.058Z,3.83
2018-07-01T02:15:02.026Z,4.23
2018-07-01T02:17:35.552Z,4.00
2018-07-01T02:20:06.079Z,4.20
2018-07-01T02:22:43.466Z,3.73
2018-07-01T02:25:18.851Z,3.90
2018-07-01T02:27:52.552Z,3.57
2018-07-01T02:30:23.381Z,4.07
2018-07-01T02:32:52.851Z,3.80
2018-07-01T02:35:21.667Z,3.60
2018-07-01T02:37:50.487Z,3.50
2018-07-01T02:40:19.756Z,3.47
2018-07-01T02:42:50.073Z,3.37
2018-07-01T02:45:21.045Z,3.20
2018-07-01T02:47:52.081Z,3.27
2018-07-01T02:50:22.499Z,2.93
2018-07-01T02:52:52.415Z,3.00
2018-07-01T02:55:24.137Z,2.70
2018-07-01T02:57:52.922Z,2.60
2018-07-01T03:00:21.702Z,2.30
2018-07-01T03:02:50.638Z,2.80
2018-07-01T03:05:20.528Z,2.67
2018-07-01T03:07:50.123Z,2.77
2018-07-01T03:10:20.442Z,2.30
2018-07-01T03:12:50.091Z,2.70
2018-07-01T03:15:22.173Z,2.30
2018-07-01T03:17:52.123Z,2.40
2018-07-01T03:20:22.097Z,2.20
2018-07-01T03:22:50.827Z,2.57
2018-07-01T03:25:19.610Z,2.27
2018-07-01T03:27:48.333Z,2.60
2018-07-01T03:30:17.310Z,2.53
2018-07-01T03:32:47.015Z,2.40
2018-07-01T03:35:20.522Z,2.50
2018-07-01T03:37:50.475Z,2.47
2018-07-01T03:40:20.346Z,2.60
2018-07-01T03:42:51.178Z,2.13
2018-07-01T03:45:22.015Z,2.43
2018-07-01T03:47:52.202Z,2.43
2018-07-01T03:50:22.158Z,2.37
2018-07-01T03:52:55.747Z,2.63
2018-07-01T03:55:26.178Z,2.50
2018-07-01T03:57:54.995Z,2.40
2018-07-01T04:00:23.815Z,2.53
2018-07-01T04:02:52.674Z,2.13
2018-07-01T04:05:22.124Z,2.37
2018-07-01T04:07:52.757Z,2.67
2018-07-01T04:10:22.176Z,2.77
2018-07-01T04:12:52.126Z,2.77
2018-07-01T04:15:22.140Z,3.10
2018-07-01T04:17:50.905Z,2.80
2018-07-01T04:20:19.664Z,2.73
2018-07-01T04:22:48.390Z,3.10
2018-07-01T04:25:17.299Z,3.07
2018-07-01T04:27:47.413Z,3.10
2018-07-01T04:30:18.249Z,2.97
2018-07-01T04:32:48.202Z,2.93
2018-07-01T04:35:18.127Z,2.50
2018-07-01T04:37:51.582Z,3.07
2018-07-01T04:40:20.932Z,3.10
2018-07-01T04:42:49.865Z,3.33
2018-07-01T04:45:18.662Z,2.93
2018-07-01T04:47:47.448Z,3.00
2018-07-01T04:50:17.189Z,3.63
2018-07-01T04:52:47.481Z,3.03
2018-07-01T04:55:18.179Z,3.10
2018-07-01T04:57:48.137Z,2.83
2018-07-01T05:00:17.107Z,2.80
2018-07-01T05:02:45.917Z,2.87
2018-07-01T05:05:14.802Z,3.03
2018-07-01T05:07:45.843Z,3.20
2018-07-01T05:10:16.341Z,3.10
2018-07-01T05:12:46.290Z,2.90
2018-07-01T05:15:16.544Z,3.07
2018-07-01T05:17:46.144Z,2.77
2018-07-01T05:20:15.038Z,2.80
2018-07-01T05:22:43.993Z,2.97
2018-07-01T05:25:12.822Z,3.00
2018-07-01T05:27:42.428Z,3.20
2018-07-01T05:30:12.367Z,3.00
2018-07-01T05:32:42.607Z,3.30
2018-07-01T05:35:13.034Z,2.87
2018-07-01T05:37:43.422Z,3.07
2018-07-01T05:40:12.191Z,3.10
2018-07-01T05:42:41.323Z,2.70
2018-07-01T05:45:10.246Z,3.00
2018-07-01T05:47:40.250Z,2.80
2018-07-01T05:50:10.095Z,3.10
2018-07-01T05:52:40.111Z,3.03
2018-07-01T05:55:10.483Z,2.60
2018-07-01T05:57:41.790Z,2.67
2018-07-01T06:00:10.734Z,2.30
2018-07-01T06:02:39.498Z,2.53
2018-07-01T06:05:08.423Z,2.60
2018-07-01T06:07:37.633Z,2.00
2018-07-01T06:10:08.152Z,2.73
2018-07-01T06:12:38.634Z,2.33
2018-07-01T06:15:08.254Z,2.40
2018-07-01T06:17:38.160Z,2.40
2018-07-01T06:20:09.078Z,2.50
2018-07-01T06:22:37.859Z,2.50
2018-07-01T06:25:06.722Z,2.43
2018-07-01T06:27:35.748Z,2.57
2018-07-01T06:30:06.203Z,2.50
2018-07-01T06:32:36.298Z,2.70
2018-07-01T06:35:10.271Z,2.00
2018-07-01T06:37:40.336Z,2.30
2018-07-01T06:40:11.514Z,2.40
2018-07-01T06:42:40.371Z,2.70
2018-07-01T06:45:09.226Z,2.30
2018-07-01T06:47:38.127Z,2.60
2018-07-01T06:50:07.353Z,2.43
2018-07-01T06:52:38.832Z,2.60
2018-07-01T06:55:10.260Z,2.60
2018-07-01T06:57:40.316Z,2.60
2018-07-01T07:00:10.540Z,2.40
2018-07-01T07:02:42.301Z,2.63
2018-07-01T07:05:11.631Z,2.30
2018-07-01T07:07:43.725Z,2.50
2018-07-01T07:10:12.718Z,2.70
2018-07-01T07:12:41.746Z,2.70
2018-07-01T07:15:10.569Z,2.43
2018-07-01T07:17:39.693Z,2.87
2018-07-01T07:20:10.759Z,2.30
2018-07-01T07:22:41.035Z,2.90
2018-07-01T07:25:12.103Z,3.13
2018-07-01T07:27:42.190Z,3.10
2018-07-01T07:30:12.326Z,2.77
2018-07-01T07:32:42.731Z,2.50
2018-07-01T07:35:11.553Z,2.37
2018-07-01T07:37:40.843Z,3.33
2018-07-01T07:40:09.870Z,2.50
2018-07-01T07:42:43.013Z,2.37
2018-07-01T07:45:16.279Z,2.50
2018-07-01T07:47:51.692Z,2.50
2018-07-01T07:50:23.095Z,2.60
2018-07-01T07:52:54.855Z,2.20
2018-07-01T07:55:24.936Z,2.37
2018-07-01T07:57:54.795Z,2.23
2018-07-01T08:00:23.517Z,2.60
2018-07-01T08:02:53.134Z,2.57
2018-07-01T08:05:23.163Z,2.50
2018-07-01T08:07:52.504Z,2.47
2018-07-01T08:10:22.223Z,2.70
2018-07-01T08:12:51.181Z,2.30
2018-07-01T08:15:19.888Z,2.70
2018-07-01T08:17:48.810Z,2.63
2018-07-01T08:20:17.997Z,2.70
2018-07-01T08:22:47.295Z,2.70
2018-07-01T08:25:17.002Z,2.33
2018-07-01T08:27:48.248Z,2.73
2018-07-01T08:30:17.488Z,2.50
2018-07-01T08:32:46.820Z,2.57
2018-07-01T08:35:16.711Z,2.60
2018-07-01T08:37:47.520Z,2.43
2018-07-01T08:40:16.529Z,2.33
2018-07-01T08:42:45.216Z,2.60
2018-07-01T08:45:14.135Z,2.80
2018-07-01T08:47:45.647Z,2.50
2018-07-01T09:02:25.750Z,2.53
2018-07-01T09:04:54.572Z,2.77
2018-07-01T09:07:23.607Z,2.70
2018-07-01T09:13:03.702Z,2.70
2018-07-01T09:18:39.484Z,3.50
2018-07-01T09:21:09.521Z,2.70
2018-07-01T09:23:38.485Z,3.13
2018-07-01T09:26:07.388Z,3.40
2018-07-01T09:28:36.391Z,3.53
2018-07-01T09:31:05.560Z,3.40
2018-07-01T10:01:01.529Z,5.47
2018-07-01T10:03:30.492Z,4.57
2018-07-01T10:05:59.689Z,5.23
2018-07-01T10:57:05.231Z,3.97
2018-07-01T10:59:34.122Z,4.17
2018-07-01T11:02:03.117Z,4.13
2018-07-01T11:34:40.632Z,3.97
2018-07-01T11:37:09.847Z,4.70
2018-07-01T11:39:39.080Z,4.83
2018-07-01T11:42:24.178Z,4.73
2018-07-01T11:44:55.666Z,4.50
2018-07-01T11:47:30.191Z,4.93
2018-07-01T11:53:02.391Z,5.80
2018-07-01T11:55:31.298Z,5.60
2018-07-01T11:58:00.169Z,5.60
2018-07-01T12:00:29.323Z,4.67
2018-07-01T12:21:15.579Z,5.10
2018-07-01T12:23:44.546Z,6.50
2018-07-01T12:26:13.542Z,5.73
2018-07-01T12:41:10.810Z,7.20
2018-07-01T12:43:40.530Z,7.30
2018-07-01T12:46:09.486Z,7.53
2018-07-01T12:48:38.343Z,7.87
2018-07-01T13:00:27.225Z,7.30
2018-07-01T13:02:56.114Z,7.20
2018-07-01T13:05:25.194Z,7.43
2018-07-01T13:07:54.987Z,6.70
2018-07-01T13:22:34.558Z,6.67
2018-07-01T13:25:03.525Z,7.27
2018-07-01T13:27:32.514Z,6.63
2018-07-01T13:30:02.866Z,5.97
2018-07-01T13:46:18.355Z,4.93
2018-07-01T13:48:47.403Z,5.17
2018-07-01T13:51:16.141Z,4.70
2018-07-01T13:56:47.158Z,4.60
2018-07-01T13:59:22.229Z,4.73
2018-07-01T14:01:54.540Z,4.70
2018-07-01T14:04:30.726Z,4.70
2018-07-01T14:06:59.503Z,4.60
2018-07-01T14:09:28.347Z,4.60
2018-07-01T14:11:57.255Z,5.00
2018-07-01T14:14:28.251Z,5.03
2018-07-01T14:17:06.791Z,5.10
2018-07-01T14:19:42.246Z,5.10
2018-07-01T14:22:15.751Z,5.77
2018-07-01T14:27:34.621Z,4.97
2018-07-01T14:30:14.330Z,5.40
2018-07-01T14:32:50.451Z,5.40
2018-07-01T14:35:28.224Z,5.97
2018-07-01T14:38:08.199Z,6.20
2018-07-01T14:40:37.045Z,6.63
2018-07-01T14:43:05.903Z,6.40
2018-07-01T14:45:34.752Z,6.70
2018-07-01T14:48:05.083Z,6.50
2018-07-01T14:50:39.302Z,6.67
2018-07-01T14:53:18.461Z,6.50
2018-07-01T14:55:58.488Z,6.10
2018-07-01T14:58:35.360Z,6.80
2018-07-01T15:01:15.147Z,6.33
2018-07-01T15:06:51.743Z,6.27
2018-07-01T15:09:31.986Z,6.30
2018-07-01T15:14:35.937Z,5.20
2018-07-01T15:17:04.572Z,5.30
2018-07-01T15:19:33.344Z,5.10
2018-07-01T15:43:31.309Z,5.67
2018-07-01T15:45:59.964Z,5.80
2018-07-01T15:48:28.550Z,5.60
2018-07-01T16:15:15.392Z,5.87
2018-07-01T16:22:58.749Z,6.97
2018-07-01T16:25:32.901Z,7.03
2018-07-01T16:28:06.695Z,7.10
2018-07-01T16:30:35.477Z,6.60
2018-07-01T16:47:32.270Z,6.80
2018-07-01T16:50:00.918Z,6.40
2018-07-01T16:52:29.644Z,7.00
2018-07-01T16:54:58.591Z,7.67
2018-07-01T16:57:28.869Z,7.43
2018-07-01T16:59:58.139Z,7.00
2018-07-01T17:02:27.110Z,6.63
2018-07-01T17:04:57.268Z,6.10
2018-07-01T17:07:26.381Z,6.40
2018-07-01T17:09:56.088Z,6.77
2018-07-01T17:12:25.679Z,6.80
2018-07-01T17:14:54.867Z,9.23
2018-07-01T17:27:03.209Z,11.17
2018-07-01T17:29:31.946Z,6.73
2018-07-01T17:32:05.855Z,7.43
2018-07-01T17:43:10.999Z,7.73
2018-07-01T17:45:40.095Z,7.20
2018-07-01T17:48:27.924Z,6.97
2018-07-01T17:52:21.199Z,6.40
2018-07-01T17:54:49.970Z,5.97
2018-07-01T17:58:00.524Z,5.80
2018-07-01T18:05:20.933Z,5.60
2018-07-01T18:07:49.970Z,5.37
2018-07-01T18:10:19.431Z,5.90
2018-07-01T18:12:48.371Z,5.30
2018-07-01T18:15:17.130Z,6.40
2018-07-01T18:17:46.065Z,6.13
2018-07-01T18:20:14.839Z,5.87
2018-07-01T18:23:00.808Z,6.30
2018-07-01T18:25:17.196Z,6.50
2018-07-01T18:27:49.651Z,5.80
2018-07-01T18:30:17.526Z,6.00
2018-07-01T18:32:48.455Z,5.80
2018-07-01T18:35:17.164Z,5.80
2018-07-01T18:37:45.934Z,5.40
2018-07-01T18:40:15.463Z,5.87
2018-07-01T18:57:47.562Z,5.40
2018-07-01T19:00:16.275Z,5.17
2018-07-01T19:02:45.175Z,5.10
2018-07-01T19:05:13.938Z,5.03
2018-07-01T19:07:42.923Z,5.30
2018-07-01T19:10:12.130Z,5.30
2018-07-01T19:12:41.331Z,5.50
2018-07-01T19:15:10.335Z,6.00
2018-07-01T19:17:39.586Z,5.60
2018-07-01T19:20:08.540Z,5.97
2018-07-01T19:22:37.540Z,5.57
2018-07-01T19:25:06.354Z,5.43
2018-07-01T19:27:35.087Z,6.13
2018-07-01T19:30:04.211Z,5.37
2018-07-01T19:32:33.821Z,5.23
2018-07-01T19:35:02.960Z,5.57
2018-07-01T19:37:32.043Z,5.90
2018-07-01T19:40:01.269Z,5.37
2018-07-01T19:42:30.522Z,5.83
2018-07-01T19:44:59.278Z,5.13
2018-07-01T19:47:28.270Z,5.17
2018-07-01T19:49:57.207Z,6.10
2018-07-01T19:52:26.147Z,5.70
2018-07-01T19:54:55.693Z,5.53
2018-07-01T19:57:25.126Z,5.10
2018-07-01T19:59:54.450Z,5.13
2018-07-01T20:02:23.646Z,5.03
2018-07-01T20:04:52.984Z,5.60
2018-07-01T20:07:21.781Z,5.67
2018-07-01T20:09:50.536Z,5.40
2018-07-01T20:12:19.327Z,5.30
2018-07-01T20:14:48.498Z,5.50
2018-07-01T20:17:18.545Z,5.50
2018-07-01T20:19:51.171Z,5.57
2018-07-01T20:22:20.848Z,5.60
2018-07-01T20:24:51.058Z,5.67
2018-07-01T20:27:20.983Z,6.03
2018-07-01T20:29:51.952Z,6.00
2018-07-01T20:32:24.005Z,5.80
2018-07-01T20:34:55.231Z,6.50
2018-07-01T20:37:26.838Z,6.13
2018-07-01T20:39:59.419Z,6.13
2018-07-01T20:42:28.094Z,6.10
2018-07-01T20:44:56.819Z,5.70
2018-07-01T20:47:25.706Z,6.27
2018-07-01T20:49:54.568Z,5.90
2018-07-01T20:52:24.527Z,5.70
2018-07-01T20:54:54.825Z,6.23
2018-07-01T20:57:25.125Z,6.53
2018-07-01T20:59:56.565Z,6.00
2018-07-01T21:02:26.541Z,5.63
2018-07-01T21:04:56.606Z,5.53
2018-07-01T21:07:26.337Z,5.93
2018-07-01T21:09:55.646Z,5.93
2018-07-01T21:12:27.456Z,5.97
2018-07-01T21:14:57.879Z,6.23
2018-07-01T21:17:27.530Z,5.47
2018-07-01T21:19:57.310Z,5.90
2018-07-01T21:22:26.624Z,5.80
2018-07-01T21:24:56.662Z,6.23
2018-07-01T21:27:26.486Z,5.43
2018-07-01T21:29:55.180Z,5.17
2018-07-01T21:32:23.944Z,5.20
2018-07-01T21:34:52.724Z,5.30
2018-07-01T21:37:21.834Z,5.30
2018-07-01T21:39:51.623Z,6.03
2018-07-01T21:42:21.560Z,5.80
2018-07-01T21:44:50.607Z,6.10
2018-07-01T21:47:20.536Z,5.77
2018-07-01T21:49:50.476Z,5.80
2018-07-01T21:52:19.618Z,5.37
2018-07-01T21:54:56.119Z,5.67
2018-07-01T21:57:26.746Z,5.47
2018-07-01T21:59:56.939Z,5.17
2018-07-01T22:02:26.665Z,5.30
2018-07-01T22:04:57.807Z,5.93
2018-07-01T22:07:26.658Z,5.23
2018-07-01T22:09:55.426Z,5.33
2018-07-01T22:12:35.183Z,5.60
2018-07-01T22:15:22.264Z,5.07
2018-07-01T22:17:52.458Z,5.50
2018-07-01T22:20:24.171Z,5.13
2018-07-01T22:22:55.821Z,4.83
2018-07-01T22:25:25.505Z,4.70
2018-07-01T22:27:54.992Z,5.60
2018-07-01T22:30:26.875Z,5.20
2018-07-01T22:32:56.550Z,4.83
2018-07-01T22:35:26.611Z,5.33
2018-07-01T22:37:58.229Z,4.70
2018-07-01T22:40:28.898Z,5.30
2018-07-01T22:43:00.107Z,5.20
2018-07-01T22:45:31.603Z,5.00
2018-07-01T22:48:02.663Z,4.70
2018-07-01T22:50:35.172Z,4.77
2018-07-01T22:53:07.384Z,4.80
2018-07-01T22:55:38.785Z,4.47
2018-07-01T22:58:09.399Z,4.73
2018-07-01T23:00:40.294Z,4.77
2018-07-01T23:03:20.631Z,5.00
2018-07-01T23:05:50.795Z,5.10
2018-07-01T23:08:19.639Z,4.27
2018-07-01T23:10:48.438Z,4.50
2018-07-01T23:13:17.297Z,4.50
2018-07-01T23:15:47.731Z,5.73
2018-07-01T23:18:19.242Z,5.27
2018-07-01T23:20:54.526Z,4.80
2018-07-01T23:23:24.853Z,5.07
2018-07-01T23:25:56.523Z,4.57
2018-07-01T23:28:27.239Z,5.20
2018-07-01T23:31:03.051Z,4.70
2018-07-01T23:33:38.836Z,4.70
2018-07-01T23:36:08.813Z,4.50
2018-07-01T23:38:42.689Z,4.90
2018-07-01T23:41:13.866Z,4.53
2018-07-01T23:43:46.584Z,4.73
2018-07-01T23:46:19.580Z,5.40
2018-07-01T23:48:50.822Z,4.67
2018-07-01T23:51:19.706Z,4.73
2018-07-01T23:53:48.478Z,4.87
2018-07-01T23:56:17.349Z,4.60
2018-07-01T23:58:46.615Z,4.70
